This is the latest recevied weather packets stored in our database for station/object KJ4EWA. If no packets are shown the sender has not sent any weather packets the latest 10 day(s).
| Time | Temp. | Humidity | Pressure | Rain* | Wind** | Luminosity | Snow |
|---|---|---|---|---|---|---|---|
| 1778007302 | 25° C | 80% | 1017.9 hPa | 0 mm | - | 177 W/m² | - |
| 1778006999 | 26.11° C | 79% | 1018 hPa | 0 mm | - | 585 W/m² | - |
| 1778006696 | 25.56° C | 79% | 1018.1 hPa | 0 mm | - | 801 W/m² | - |
| 1778006392 | 25° C | 82% | 1018 hPa | 0 mm | - | 497 W/m² | - |
| 1778006089 | 25° C | 82% | 1018.2 hPa | 0 mm | - | 275 W/m² | - |
| 1778005785 | 25° C | 82% | 1018 hPa | 0 mm | - | 340 W/m² | - |
| 1778005483 | 25.56° C | 80% | 1018.2 hPa | 0 mm | - | 258 W/m² | - |
| 1778005179 | 25.56° C | 79% | 1018.3 hPa | 0 mm | - | 530 W/m² | - |
| 1778004876 | 26.11° C | 78% | 1018.4 hPa | 0 mm | - | 823 W/m² | - |
| 1778004573 | 25.56° C | 79% | 1018.3 hPa | 0 mm | - | 735 W/m² | - |
| 1778004269 | 25.56° C | 80% | 1018.2 hPa | 0 mm | - | 182 W/m² | - |
| 1778003966 | 25° C | 81% | 1018.1 hPa | 0 mm | - | 213 W/m² | - |
| 1778003662 | 25.56° C | 80% | 1018.1 hPa | 0 mm | - | 667 W/m² | - |
| 1778003359 | 25.56° C | 81% | 1018.1 hPa | 0 mm | - | 613 W/m² | - |
| 1778003057 | 25° C | 81% | 1018.2 hPa | 0 mm | - | 716 W/m² | - |
| 1778002752 | 24.44° C | 83% | 1018.2 hPa | 0 mm | - | 196 W/m² | - |
| 1778002449 | 25° C | 82% | 1018.1 hPa | 0 mm | - | 168 W/m² | - |
| 1778002146 | 24.44° C | 82% | 1018.1 hPa | 0 mm | - | 164 W/m² | - |
| 1778001844 | 25° C | 81% | 1018 hPa | 0 mm | - | 489 W/m² | - |
| 1778001543 | 25° C | 79% | 1017.8 hPa | 0 mm | - | 261 W/m² | - |
| 1778001240 | 25° C | 81% | 1018.1 hPa | 0 mm | - | 596 W/m² | - |
| 1778000937 | 25° C | 80% | 1018 hPa | 0 mm | - | 651 W/m² | - |
| 1778000634 | 24.44° C | 81% | 1018.2 hPa | 0 mm | - | 221 W/m² | - |
| 1778000329 | 25° C | 79% | 1018.2 hPa | 0 mm | - | 247 W/m² | - |
| 1778000025 | 25° C | 79% | 1018.3 hPa | 0 mm | - | 513 W/m² | - |
* Rain latest hour (hover to see other rain measurements)
** Current wind speed in m/s (hover to see current wind gust speed)